Time;durP1;ratioP1;P1;durP2;ratioP2;P2;SDS_P1;SDS_P2;PMS_P1;PMS_P2;Temp;Humidity;BMP_temperature;BMP_pressure;BME280_temperature;BME280_humidity;BME280_pressure;Samples;Min_cycle;Max_cycle;Signal;HPM_P1;HPM_P2
2023/08/14 00:01:26;;;;;;;12.10;11.00;;;27.00;71.90;;;;;;4991850;28;20261;-77
2023/08/14 00:03:52;;;;;;;12.10;10.53;;;27.00;72.00;;;;;;4991938;28;20084;-77
2023/08/14 00:06:17;;;;;;;12.90;10.40;;;26.90;72.10;;;;;;5007190;28;20141;-77
2023/08/14 00:08:43;;;;;;;13.00;10.57;;;26.90;72.80;;;;;;4991941;28;20025;-77
2023/08/14 00:11:09;;;;;;;14.47;10.87;;;26.80;72.70;;;;;;4976976;28;20409;-77
2023/08/14 00:13:55;;;;;;;11.83;10.70;;;26.80;72.70;;;;;;4995234;28;20027;-77
2023/08/14 00:16:23;;;;;;;18.27;10.60;;;26.80;72.30;;;;;;4995378;28;20038;-77
2023/08/14 00:18:48;;;;;;;13.52;11.43;;;26.70;73.40;;;;;;5010349;28;20041;-77
2023/08/14 00:21:14;;;;;;;13.07;10.87;;;26.70;73.50;;;;;;5010760;28;20050;-76
2023/08/14 00:23:40;;;;;;;15.03;11.13;;;26.70;73.80;;;;;;4994188;28;20092;-77
2023/08/14 00:26:06;;;;;;;11.57;10.57;;;26.70;73.70;;;;;;5010158;28;20396;-77
2023/08/14 00:28:32;;;;;;;13.50;10.90;;;26.70;73.70;;;;;;4977461;28;20077;-77
2023/08/14 00:30:58;;;;;;;12.30;11.10;;;26.70;74.30;;;;;;4993747;28;20086;-76
2023/08/14 00:33:24;;;;;;;12.30;11.20;;;26.70;73.70;;;;;;4993891;28;20041;-77
2023/08/14 00:35:49;;;;;;;14.63;12.40;;;26.60;73.90;;;;;;4993732;28;20023;-77
2023/08/14 00:38:15;;;;;;;12.13;11.03;;;26.60;74.00;;;;;;4994922;28;20481;-77
2023/08/14 00:40:41;;;;;;;11.80;10.70;;;26.60;73.80;;;;;;4994968;28;20031;-77
2023/08/14 00:43:07;;;;;;;12.13;10.90;;;26.60;73.90;;;;;;4993674;28;20076;-78
2023/08/14 00:45:33;;;;;;;15.32;11.50;;;26.70;73.60;;;;;;4993452;28;20647;-77
2023/08/14 00:47:59;;;;;;;13.38;12.07;;;26.60;73.70;;;;;;4995051;28;20314;-77
2023/08/14 00:50:26;;;;;;;14.25;12.80;;;26.60;74.00;;;;;;4994848;28;20030;-76
2023/08/14 00:52:55;;;;;;;12.43;11.32;;;26.60;73.90;;;;;;4994765;28;20425;-77
2023/08/14 00:55:28;;;;;;;20.25;12.27;;;26.60;73.70;;;;;;4994796;28;20038;-77
2023/08/14 00:57:55;;;;;;;13.07;11.70;;;26.60;72.60;;;;;;4993424;28;20073;-77
2023/08/14 01:00:22;;;;;;;13.73;11.80;;;26.60;74.20;;;;;;4993469;28;20034;-76
2023/08/14 01:02:48;;;;;;;;;;;26.50;74.50;;;;;;5010012;28;20053;-77
2023/08/14 01:05:14;;;;;;;12.73;11.63;;;26.50;71.90;;;;;;4994520;28;19906;-76
2023/08/14 01:07:40;;;;;;;12.48;11.27;;;26.50;74.10;;;;;;5009125;28;20512;-76
2023/08/14 01:10:08;;;;;;;14.03;12.27;;;26.40;74.10;;;;;;4993098;28;20034;-76
2023/08/14 01:12:57;;;;;;;13.48;12.05;;;26.40;74.00;;;;;;4976916;28;20492;-76
2023/08/14 01:15:29;;;;;;;11.75;10.68;;;26.40;73.70;;;;;;4993110;28;20050;-77
2023/08/14 01:17:59;;;;;;;14.77;13.07;;;26.40;73.80;;;;;;5009250;28;20126;-77
2023/08/14 01:20:29;;;;;;;13.40;12.00;;;26.40;74.10;;;;;;4992933;28;20540;-77
2023/08/14 01:23:03;;;;;;;14.25;12.85;;;26.30;74.80;;;;;;4993061;28;20030;-76
2023/08/14 01:25:31;;;;;;;13.60;12.40;;;26.30;72.90;;;;;;4992986;28;20034;-76
2023/08/14 01:27:58;;;;;;;14.57;13.20;;;26.30;75.20;;;;;;4992586;28;20121;-76
2023/08/14 01:30:24;;;;;;;14.88;13.35;;;26.20;75.30;;;;;;4992588;28;20450;-77
2023/08/14 01:32:51;;;;;;;16.63;14.93;;;26.30;75.50;;;;;;4976480;28;20026;-77
2023/08/14 01:35:19;;;;;;;15.40;13.48;;;26.20;75.40;;;;;;5008998;28;20038;-76
2023/08/14 01:38:10;;;;;;;14.27;12.93;;;26.20;75.40;;;;;;4993638;28;20022;-76
2023/08/14 01:40:56;;;;;;;14.57;13.07;;;26.20;73.80;;;;;;5008850;28;20038;-76
2023/08/14 01:43:47;;;;;;;20.33;13.25;;;26.10;75.00;;;;;;4992496;28;20034;-76
2023/08/14 01:46:15;;;;;;;18.48;15.05;;;26.10;73.10;;;;;;4993842;28;20022;-77
2023/08/14 01:48:41;;;;;;;16.17;14.43;;;26.10;75.70;;;;;;4993624;28;20030;-76
2023/08/14 01:51:09;;;;;;;16.83;14.13;;;26.10;76.20;;;;;;4992242;28;20493;-76
2023/08/14 01:53:41;;;;;;;17.17;15.57;;;26.10;76.40;;;;;;4991975;28;20097;-76
2023/08/14 01:56:06;;;;;;;16.25;14.50;;;26.00;74.60;;;;;;5008748;28;20053;-77
2023/08/14 01:58:33;;;;;;;16.23;14.53;;;26.00;76.80;;;;;;5008440;28;20030;-77
2023/08/14 02:00:59;;;;;;;15.27;13.73;;;26.00;76.80;;;;;;4993652;28;20054;-77
2023/08/14 02:03:27;;;;;;;17.37;15.57;;;25.90;77.10;;;;;;5008426;28;20069;-77
2023/08/14 02:05:53;;;;;;;16.83;15.32;;;26.00;77.10;;;;;;5008527;28;20047;-77
2023/08/14 02:08:19;;;;;;;17.20;14.73;;;25.90;77.30;;;;;;4991579;28;20033;-77
2023/08/14 02:10:46;;;;;;;20.13;18.17;;;25.90;77.70;;;;;;4991957;28;20034;-77
2023/08/14 02:13:12;;;;;;;19.55;16.30;;;25.80;77.80;;;;;;5008077;28;20034;-77
2023/08/14 02:15:38;;;;;;;17.58;15.70;;;25.80;77.90;;;;;;5008308;28;20018;-77
2023/08/14 02:18:04;;;;;;;18.73;16.77;;;25.80;78.00;;;;;;4993188;28;20105;-76
2023/08/14 02:20:30;;;;;;;16.40;14.63;;;25.80;78.40;;;;;;4991832;28;20076;-77
2023/08/14 02:22:57;;;;;;;16.83;15.18;;;25.80;78.00;;;;;;4993029;28;20314;-77
2023/08/14 02:25:23;;;;;;;17.77;15.87;;;25.80;78.20;;;;;;4991991;28;20050;-77
2023/08/14 02:27:48;;;;;;;18.23;16.53;;;25.80;78.60;;;;;;4992903;28;20616;-77
2023/08/14 02:30:14;;;;;;;17.47;15.77;;;25.70;78.80;;;;;;4993171;28;20030;-77
2023/08/14 02:32:40;;;;;;;16.67;15.03;;;25.70;79.00;;;;;;4992663;28;20041;-77
2023/08/14 02:35:06;;;;;;;16.43;14.83;;;25.70;78.80;;;;;;4991737;28;20033;-77
2023/08/14 02:37:32;;;;;;;17.63;15.13;;;25.70;79.00;;;;;;4991003;28;20111;-77
2023/08/14 02:39:58;;;;;;;15.87;14.27;;;25.70;79.20;;;;;;4991772;28;20030;-76
2023/08/14 02:42:23;;;;;;;15.50;14.10;;;25.70;79.10;;;;;;4991623;28;20072;-77
2023/08/14 02:44:50;;;;;;;16.60;14.93;;;25.70;79.20;;;;;;4991912;28;20034;-77
2023/08/14 02:47:16;;;;;;;;;;;25.70;79.30;;;;;;4993093;28;20034;-76
2023/08/14 02:49:42;;;;;;;16.52;14.68;;;25.60;78.70;;;;;;4991530;28;19910;-77
2023/08/14 02:52:10;;;;;;;16.08;14.48;;;25.60;79.30;;;;;;4991449;28;20041;-77
2023/08/14 02:54:36;;;;;;;16.73;15.13;;;25.60;79.50;;;;;;4991640;28;20027;-77
2023/08/14 02:57:02;;;;;;;16.70;15.03;;;25.60;79.40;;;;;;4992816;28;20035;-77
2023/08/14 02:59:28;;;;;;;17.43;15.90;;;25.50;80.40;;;;;;4991546;28;20072;-77
2023/08/14 03:01:53;;;;;;;17.37;15.63;;;25.50;79.80;;;;;;4991529;28;20057;-77
2023/08/14 03:04:19;;;;;;;16.00;14.50;;;25.50;79.80;;;;;;5007524;28;20061;-77
2023/08/14 03:06:45;;;;;;;16.37;14.40;;;25.50;79.70;;;;;;4991338;28;20038;-77
2023/08/14 03:09:12;;;;;;;17.20;15.50;;;25.50;79.70;;;;;;4991305;28;20062;-77
2023/08/14 03:11:37;;;;;;;18.00;15.57;;;25.50;79.90;;;;;;5007786;28;20030;-76
2023/08/14 03:14:04;;;;;;;16.80;15.10;;;25.40;80.00;;;;;;4991246;28;20041;-77
2023/08/14 03:16:29;;;;;;;19.05;15.20;;;25.40;79.90;;;;;;4992724;28;20018;-76
2023/08/14 03:18:55;;;;;;;16.20;14.33;;;25.40;80.00;;;;;;4991214;28;20114;-77
2023/08/14 03:21:22;;;;;;;19.00;16.92;;;25.40;79.90;;;;;;4991114;28;20030;-77
2023/08/14 03:23:48;;;;;;;18.33;16.43;;;25.30;80.30;;;;;;4990924;28;20030;-77
2023/08/14 03:26:14;;;;;;;19.65;17.55;;;25.20;80.80;;;;;;4991222;28;20440;-77
2023/08/14 03:28:40;;;;;;;20.45;18.55;;;25.10;81.00;;;;;;4991116;28;20061;-77
2023/08/14 03:31:06;;;;;;;19.03;16.90;;;25.10;81.40;;;;;;4975104;28;20034;-77
2023/08/14 03:33:32;;;;;;;19.70;17.92;;;25.10;81.40;;;;;;5007454;28;20030;-77
2023/08/14 03:35:58;;;;;;;21.13;19.13;;;25.10;81.80;;;;;;5007349;28;20113;-77
2023/08/14 03:38:24;;;;;;;20.03;18.20;;;25.10;81.70;;;;;;4991021;28;20364;-77
2023/08/14 03:40:51;;;;;;;19.42;17.45;;;25.10;81.80;;;;;;4991058;28;20031;-76
2023/08/14 03:43:16;;;;;;;19.13;17.23;;;25.00;81.90;;;;;;5007403;28;20089;-77
2023/08/14 03:45:45;;;;;;;18.45;16.65;;;25.00;82.10;;;;;;4994516;28;20044;-77
2023/08/14 03:48:10;;;;;;;17.73;16.13;;;25.00;81.90;;;;;;4994835;28;20133;-77
2023/08/14 03:50:36;;;;;;;19.23;17.50;;;25.00;81.60;;;;;;4994797;28;20030;-77
2023/08/14 03:53:02;;;;;;;18.40;16.50;;;25.10;81.80;;;;;;4995897;28;20034;-77
2023/08/14 03:55:28;;;;;;;26.53;16.03;;;25.00;81.70;;;;;;4994616;28;20031;-79
2023/08/14 03:57:57;;;;;;;18.27;15.65;;;25.00;81.60;;;;;;4995762;28;20034;-79
2023/08/14 04:00:23;;;;;;;;;;;25.00;81.90;;;;;;4995552;28;20030;-79
2023/08/14 04:02:49;;;;;;;17.00;15.32;;;24.90;77.80;;;;;;4983515;28;19909;-79
2023/08/14 04:05:14;;;;;;;21.57;16.37;;;24.90;81.80;;;;;;4995847;28;20054;-79
2023/08/14 04:07:40;;;;;;;20.13;18.40;;;24.90;81.90;;;;;;4994117;28;20481;-79
2023/08/14 04:10:06;;;;;;;20.30;18.30;;;24.90;81.90;;;;;;4994418;28;20553;-79
2023/08/14 04:12:33;;;;;;;;;;;24.90;82.20;;;;;;4996085;28;20085;-79
2023/08/14 04:15:13;;;;;;;19.20;17.10;;;24.80;77.90;;;;;;4978335;28;19918;-79
2023/08/14 04:17:38;;;;;;;18.92;17.13;;;24.70;79.10;;;;;;4993647;28;20033;-79
2023/08/14 04:20:05;;;;;;;17.53;15.73;;;24.70;82.40;;;;;;4993999;28;20019;-79
2023/08/14 04:22:31;;;;;;;17.73;15.98;;;24.70;82.10;;;;;;4993614;28;20057;-79
2023/08/14 04:24:56;;;;;;;17.17;15.47;;;24.70;82.20;;;;;;4998003;28;20116;-80
2023/08/14 04:27:22;;;;;;;19.60;15.83;;;24.70;82.00;;;;;;5003691;28;20054;-80
2023/08/14 04:29:48;;;;;;;16.67;14.48;;;24.70;82.20;;;;;;4994925;28;20069;-79
2023/08/14 04:32:14;;;;;;;16.47;13.23;;;24.70;82.10;;;;;;4993545;28;20058;-79
2023/08/14 04:34:40;;;;;;;16.50;14.77;;;24.80;81.70;;;;;;4994037;28;20022;-82
2023/08/14 04:37:06;;;;;;;16.88;15.25;;;24.70;82.00;;;;;;4993553;28;20037;-82
2023/08/14 04:39:34;;;;;;;18.35;15.38;;;24.70;82.00;;;;;;4993268;28;20382;-83
2023/08/14 04:42:00;;;;;;;16.42;14.55;;;24.70;82.40;;;;;;4975985;28;20026;-82
2023/08/14 04:44:27;;;;;;;16.35;14.65;;;24.60;82.60;;;;;;4993178;28;20060;-83
2023/08/14 04:46:52;;;;;;;15.43;13.63;;;24.50;82.80;;;;;;4994929;28;20109;-82
2023/08/14 04:49:18;;;;;;;16.53;13.40;;;24.50;82.60;;;;;;4993163;28;20497;-82
2023/08/14 04:51:44;;;;;;;14.87;13.47;;;24.50;82.40;;;;;;4993286;28;20044;-82
2023/08/14 04:54:10;;;;;;;14.95;13.15;;;24.50;82.40;;;;;;4977217;28;20026;-83
2023/08/14 04:56:36;;;;;;;14.93;13.37;;;24.60;82.40;;;;;;4992772;28;20077;-83
2023/08/14 04:59:06;;;;;;;15.07;13.45;;;24.60;82.00;;;;;;4993509;28;20027;-88
2023/08/14 05:01:32;;;;;;;15.98;14.30;;;24.60;81.20;;;;;;4992349;28;20473;-83
2023/08/14 05:03:58;;;;;;;16.40;13.73;;;24.70;82.20;;;;;;4977068;28;20065;-82
2023/08/14 05:06:25;;;;;;;18.27;12.98;;;24.70;82.00;;;;;;4994177;28;20034;-85
2023/08/14 05:08:53;;;;;;;13.80;12.35;;;24.80;82.10;;;;;;4994466;28;20026;-84
2023/08/14 05:11:19;;;;;;;14.20;12.70;;;24.80;82.10;;;;;;4976799;28;20044;-83
2023/08/14 05:13:46;;;;;;;15.53;12.60;;;24.90;81.50;;;;;;4992423;28;20085;-84
2023/08/14 05:16:12;;;;;;;15.98;11.68;;;24.90;81.30;;;;;;4993252;28;20366;-84
2023/08/14 05:18:38;;;;;;;13.05;11.75;;;24.90;81.00;;;;;;5009077;28;20022;-83
2023/08/14 05:21:05;;;;;;;14.15;11.23;;;24.90;80.90;;;;;;4992891;28;20593;-83
2023/08/14 05:23:31;;;;;;;14.15;10.35;;;25.00;80.90;;;;;;4992756;28;20057;-84
2023/08/14 05:25:57;;;;;;;12.63;10.23;;;25.10;80.90;;;;;;4992759;28;20057;-83
2023/08/14 05:28:22;;;;;;;14.23;10.10;;;25.10;80.50;;;;;;4993766;28;20041;-83
2023/08/14 05:30:48;;;;;;;14.30;10.87;;;25.10;80.20;;;;;;4992799;28;20089;-84
2023/08/14 05:33:15;;;;;;;12.87;10.70;;;25.10;79.80;;;;;;5009118;28;20089;-84
2023/08/14 05:35:41;;;;;;;15.38;10.82;;;25.10;79.10;;;;;;5009093;28;20037;-85
2023/08/14 05:38:06;;;;;;;15.43;9.70;;;25.20;79.00;;;;;;4994008;28;20026;-85
2023/08/14 05:40:32;;;;;;;12.80;9.43;;;25.30;78.20;;;;;;5001229;28;20025;-84
2023/08/14 05:43:08;;;;;;;14.77;10.27;;;25.30;78.30;;;;;;5008634;28;20030;-85
2023/08/14 05:45:36;;;;;;;15.27;9.52;;;25.40;76.30;;;;;;4993700;28;20269;-84
2023/08/14 05:48:03;;;;;;;17.05;9.85;;;25.40;78.40;;;;;;4992190;28;20030;-85
2023/08/14 05:50:30;;;;;;;11.25;8.55;;;25.40;78.70;;;;;;5009219;28;20408;-84
2023/08/14 05:52:57;;;;;;;;;;;25.50;78.20;;;;;;4993791;28;20034;-85
2023/08/14 05:55:23;;;;;;;19.35;8.90;;;25.50;76.70;;;;;;4992281;28;20017;-86
2023/08/14 05:57:49;;;;;;;15.38;8.90;;;25.50;77.00;;;;;;4991931;28;20058;-86
2023/08/14 06:00:16;;;;;;;10.85;8.77;;;25.60;77.90;;;;;;5008635;28;20030;-86
2023/08/14 06:02:43;;;;;;;11.27;8.82;;;25.60;77.20;;;;;;4992095;28;20045;-85
2023/08/14 06:05:08;;;;;;;53.13;44.80;;;25.70;77.30;;;;;;4993395;28;20038;-84
2023/08/14 06:07:35;;;;;;;16.87;13.43;;;25.60;77.20;;;;;;4992467;28;20038;-85
2023/08/14 06:10:05;;;;;;;;;;;25.70;76.80;;;;;;4993679;28;20054;-84
2023/08/14 06:12:31;;;;;;;11.10;9.93;;;25.70;76.30;;;;;;4992978;28;20394;-84
2023/08/14 06:14:57;;;;;;;;;;;25.70;76.60;;;;;;4992447;28;20077;-84
2023/08/14 06:17:24;;;;;;;13.35;8.45;;;25.70;75.70;;;;;;4992991;28;19948;-85
2023/08/14 06:19:50;;;;;;;;;;;25.80;76.20;;;;;;4992199;28;20626;-85
2023/08/14 06:22:17;;;;;;;11.13;8.27;;;25.80;75.40;;;;;;4992986;28;19957;-85
2023/08/14 06:24:42;;;;;;;9.23;7.25;;;25.90;75.90;;;;;;4991639;28;20038;-84
2023/08/14 06:27:08;;;;;;;7.63;6.87;;;25.90;75.70;;;;;;4991887;28;20033;-83
2023/08/14 06:29:34;;;;;;;8.00;6.13;;;26.00;75.20;;;;;;4991665;28;20030;-84
2023/08/14 06:32:00;;;;;;;6.70;5.80;;;26.00;74.70;;;;;;4992000;28;20034;-84
2023/08/14 06:34:27;;;;;;;10.10;6.28;;;26.10;75.00;;;;;;4993107;28;20027;-84
2023/08/14 06:36:53;;;;;;;10.50;5.88;;;26.10;73.90;;;;;;4992812;28;20031;-84
2023/08/14 06:39:19;;;;;;;7.43;5.80;;;26.20;74.00;;;;;;4992627;28;20105;-84
2023/08/14 06:41:45;;;;;;;8.93;5.78;;;26.20;73.10;;;;;;4991617;28;20065;-83
2023/08/14 06:44:12;;;;;;;7.85;5.53;;;26.30;73.20;;;;;;4991353;28;20086;-85
2023/08/14 06:46:38;;;;;;;10.43;5.67;;;26.30;72.90;;;;;;4991551;28;20400;-86
2023/08/14 06:49:04;;;;;;;8.32;6.38;;;26.40;73.10;;;;;;4975291;28;20386;-86
2023/08/14 06:51:32;;;;;;;6.37;5.77;;;26.40;72.40;;;;;;4991737;28;20025;-83
2023/08/14 06:53:58;;;;;;;19.95;7.88;;;26.50;72.80;;;;;;4975253;28;20072;-83
2023/08/14 06:56:25;;;;;;;6.73;5.40;;;26.50;72.20;;;;;;4991309;28;20058;-85
2023/08/14 06:58:51;;;;;;;7.65;5.90;;;26.50;72.30;;;;;;4990940;28;20297;-84
2023/08/14 07:01:16;;;;;;;6.00;4.90;;;26.50;72.30;;;;;;4991256;28;20050;-87
2023/08/14 07:03:42;;;;;;;10.10;5.83;;;26.50;72.40;;;;;;4991246;28;20042;-83
2023/08/14 07:06:08;;;;;;;6.57;5.30;;;26.60;71.60;;;;;;4991387;28;20027;-85
2023/08/14 07:08:34;;;;;;;10.37;5.37;;;26.70;70.90;;;;;;4991001;28;20057;-84
2023/08/14 07:11:00;;;;;;;10.80;5.97;;;26.70;71.00;;;;;;4991104;28;20037;-85
2023/08/14 07:13:26;;;;;;;15.23;6.17;;;26.80;71.10;;;;;;4991074;28;20042;-84
2023/08/14 07:15:51;;;;;;;8.47;6.03;;;26.80;70.50;;;;;;4992731;28;20035;-85
2023/08/14 07:18:18;;;;;;;7.17;5.53;;;26.90;70.80;;;;;;4992157;28;20033;-83
2023/08/14 07:20:46;;;;;;;;;;;26.90;70.50;;;;;;4977846;28;20065;-83
2023/08/14 07:23:17;;;;;;;10.20;5.53;;;27.00;70.30;;;;;;4996382;28;19917;-84
2023/08/14 07:25:43;;;;;;;9.20;6.90;;;27.00;70.10;;;;;;4995161;28;20030;-85
2023/08/14 07:28:09;;;;;;;;;;;27.00;70.60;;;;;;4995526;28;20429;-85
2023/08/14 07:30:36;;;;;;;8.30;5.05;;;27.00;68.80;;;;;;4996198;28;19914;-85
2023/08/14 07:33:02;;;;;;;13.82;5.20;;;27.00;69.70;;;;;;4996121;28;20033;-84
2023/08/14 07:35:28;;;;;;;10.97;6.63;;;27.00;70.20;;;;;;4996653;28;20023;-85
2023/08/14 07:37:54;;;;;;;6.87;6.17;;;27.10;70.40;;;;;;4978472;28;20046;-85
2023/08/14 07:40:19;;;;;;;9.57;4.87;;;27.10;69.80;;;;;;4995060;28;20030;-79
2023/08/14 07:42:45;;;;;;;8.38;5.57;;;27.20;69.40;;;;;;4995190;28;20038;-79
2023/08/14 07:45:11;;;;;;;10.93;5.63;;;27.20;70.00;;;;;;4996098;28;20113;-79
2023/08/14 07:47:37;;;;;;;9.17;5.37;;;27.30;69.30;;;;;;4995402;28;20034;-80
2023/08/14 07:50:03;;;;;;;10.40;5.20;;;27.30;69.70;;;;;;4977916;28;20565;-79
2023/08/14 07:52:30;;;;;;;11.90;4.90;;;27.40;69.60;;;;;;4994007;28;20030;-78
2023/08/14 07:54:59;;;;;;;14.75;5.03;;;27.40;68.60;;;;;;4994740;28;20033;-80
2023/08/14 07:57:25;;;;;;;9.18;4.88;;;27.50;68.60;;;;;;4996440;28;20030;-79
2023/08/14 07:59:51;;;;;;;8.23;4.83;;;27.50;67.90;;;;;;4996060;28;20042;-80
2023/08/14 08:02:16;;;;;;;9.10;4.43;;;27.60;68.10;;;;;;4995530;28;20042;-79
2023/08/14 08:04:42;;;;;;;7.80;4.37;;;27.60;67.50;;;;;;4995011;28;20513;-79
2023/08/14 08:07:08;;;;;;;12.83;4.57;;;27.60;66.90;;;;;;4979940;28;20906;-80
2023/08/14 08:09:34;;;;;;;5.18;3.90;;;27.70;66.30;;;;;;4998710;28;20038;-79
2023/08/14 08:12:00;;;;;;;8.68;4.85;;;27.70;66.00;;;;;;4978527;28;20034;-79
2023/08/14 08:14:27;;;;;;;8.35;4.32;;;27.70;66.40;;;;;;4995846;28;20045;-79
2023/08/14 08:16:53;;;;;;;12.05;5.30;;;27.70;67.10;;;;;;4996134;28;20027;-79
2023/08/14 08:19:18;;;;;;;8.23;5.13;;;27.80;65.70;;;;;;4994474;28;20400;-79
2023/08/14 08:21:44;;;;;;;6.17;5.10;;;27.90;66.40;;;;;;4995724;28;20033;-79
2023/08/14 08:24:10;;;;;;;8.10;4.13;;;27.90;66.00;;;;;;4994741;28;20030;-79
2023/08/14 08:26:36;;;;;;;8.93;4.72;;;27.90;66.00;;;;;;4995768;28;20029;-79
2023/08/14 08:29:03;;;;;;;8.30;4.47;;;28.00;65.70;;;;;;4994079;28;20397;-79
2023/08/14 08:31:29;;;;;;;6.38;3.88;;;28.00;65.90;;;;;;4993683;28;20026;-80
2023/08/14 08:33:55;;;;;;;6.23;4.83;;;28.10;66.20;;;;;;4993865;28;20187;-79
2023/08/14 08:36:21;;;;;;;9.43;4.73;;;28.20;66.80;;;;;;4995178;28;20084;-79
2023/08/14 08:38:47;;;;;;;7.28;5.10;;;28.20;65.70;;;;;;4996243;28;20033;-79
2023/08/14 08:41:20;;;;;;;6.38;4.43;;;28.30;65.20;;;;;;4994576;28;20035;-80
2023/08/14 08:43:50;;;;;;;8.07;4.35;;;28.30;65.50;;;;;;4996684;28;20034;-79
2023/08/14 08:46:19;;;;;;;7.97;5.00;;;28.40;66.40;;;;;;4994578;28;20034;-79
2023/08/14 08:48:50;;;;;;;6.07;4.70;;;28.40;66.00;;;;;;4995510;28;20030;-79
2023/08/14 08:51:17;;;;;;;15.77;4.68;;;28.50;65.10;;;;;;4994151;28;20050;-79
2023/08/14 08:53:43;;;;;;;;;;;28.60;66.00;;;;;;4994670;28;20465;-80
2023/08/14 08:56:10;;;;;;;8.95;4.70;;;28.70;64.90;;;;;;4993934;28;19917;-79
2023/08/14 08:58:36;;;;;;;6.45;4.60;;;28.70;64.90;;;;;;4994064;28;20033;-79
2023/08/14 09:01:02;;;;;;;8.10;5.22;;;28.80;65.40;;;;;;4995537;28;20030;-79
2023/08/14 09:03:28;;;;;;;8.73;4.35;;;28.80;65.70;;;;;;4995427;28;20057;-79
2023/08/14 09:05:54;;;;;;;5.57;3.50;;;28.90;64.70;;;;;;4995310;28;20054;-79
2023/08/14 09:08:20;;;;;;;7.97;4.65;;;29.00;63.20;;;;;;4995214;28;20129;-79
2023/08/14 09:10:46;;;;;;;5.93;4.07;;;28.90;62.80;;;;;;4995593;28;20504;-80
2023/08/14 09:13:14;;;;;;;6.00;4.65;;;29.00;63.60;;;;;;4994954;28;20041;-78
2023/08/14 09:15:44;;;;;;;7.15;4.57;;;29.00;62.50;;;;;;4993561;28;20022;-77
2023/08/14 09:18:10;;;;;;;10.05;4.40;;;29.10;62.10;;;;;;4977244;28;20081;-76
2023/08/14 09:20:38;;;;;;;5.82;4.20;;;29.00;61.60;;;;;;4994782;28;20026;-77
2023/08/14 09:23:04;;;;;;;9.15;3.97;;;29.00;62.60;;;;;;4993675;28;20030;-77
2023/08/14 09:25:31;;;;;;;5.17;3.20;;;29.10;60.30;;;;;;4995023;28;20113;-77
2023/08/14 09:27:57;;;;;;;4.78;3.15;;;29.20;59.70;;;;;;4994480;28;20152;-79
2023/08/14 09:30:26;;;;;;;8.38;3.47;;;29.20;59.70;;;;;;4994775;28;20037;-80
2023/08/14 09:32:54;;;;;;;13.80;4.18;;;29.30;60.10;;;;;;4993346;28;20089;-79
2023/08/14 09:35:20;;;;;;;5.97;3.45;;;29.30;60.00;;;;;;4995364;28;20034;-79
2023/08/14 09:37:48;;;;;;;4.13;2.67;;;29.40;58.90;;;;;;4995402;28;20023;-79
2023/08/14 09:40:16;;;;;;;9.75;2.95;;;29.50;58.10;;;;;;4993968;28;20034;-79
2023/08/14 09:42:44;;;;;;;9.95;2.90;;;29.50;56.50;;;;;;4993174;28;20035;-79
2023/08/14 09:45:12;;;;;;;6.63;2.65;;;29.70;56.50;;;;;;4995294;28;20582;-80
2023/08/14 09:47:39;;;;;;;8.27;2.95;;;29.90;56.70;;;;;;4977665;28;20030;-80
2023/08/14 09:50:06;;;;;;;9.93;3.35;;;30.00;56.50;;;;;;4992726;28;20552;-81
2023/08/14 09:52:32;;;;;;;5.60;3.03;;;30.10;55.90;;;;;;4993515;28;20031;-79
2023/08/14 09:55:00;;;;;;;10.25;3.10;;;30.10;55.80;;;;;;4992447;28;20448;-85
2023/08/14 09:57:31;;;;;;;14.70;3.15;;;30.10;54.90;;;;;;4979661;28;20556;-87
2023/08/14 10:00:00;;;;;;;8.07;2.65;;;30.00;55.10;;;;;;4958225;28;20038;-83
2023/08/14 10:02:27;;;;;;;6.40;2.15;;;29.90;55.70;;;;;;4973892;28;20093;-83
2023/08/14 10:04:53;;;;;;;3.75;2.28;;;30.00;54.10;;;;;;4973187;28;20035;-83
2023/08/14 10:07:23;;;;;;;4.93;2.53;;;30.20;53.80;;;;;;4981080;28;20031;-84
2023/08/14 10:09:55;;;;;;;6.10;2.63;;;30.30;53.50;;;;;;4972544;28;20034;-83
2023/08/14 10:12:36;;;;;;;7.50;2.38;;;30.30;53.10;;;;;;4973649;28;20035;-83
2023/08/14 10:15:11;;;;;;;4.00;3.00;;;30.30;53.70;;;;;;5058321;23;20045;-84
2023/08/14 10:17:51;;;;;;;5.50;1.73;;;30.30;53.50;;;;;;5023956;28;20077;-84
2023/08/14 10:20:20;;;;;;;3.85;2.53;;;30.30;52.10;;;;;;5013129;28;20498;-84
2023/08/14 10:22:47;;;;;;;3.35;2.08;;;30.50;52.30;;;;;;5016638;28;20108;-84
2023/08/14 10:25:14;;;;;;;5.13;2.53;;;30.60;51.60;;;;;;5033657;28;20026;-84
2023/08/14 10:27:40;;;;;;;2.38;2.00;;;30.70;51.50;;;;;;5028633;28;20404;-84
2023/08/14 10:30:07;;;;;;;9.02;3.60;;;30.80;52.10;;;;;;4991955;28;20026;-84
2023/08/14 10:32:34;;;;;;;6.63;2.80;;;31.00;52.50;;;;;;5014237;28;20084;-84
2023/08/14 10:35:00;;;;;;;16.17;3.38;;;31.00;53.30;;;;;;4982387;28;20080;-84
2023/08/14 10:37:28;;;;;;;3.03;2.40;;;31.00;53.00;;;;;;5014554;28;20033;-83
2023/08/14 10:40:17;;;;;;;4.03;2.17;;;31.10;52.60;;;;;;5014055;28;20022;-79
2023/08/14 10:42:45;;;;;;;7.07;2.22;;;31.20;50.10;;;;;;5014131;28;20036;-78
2023/08/14 10:45:14;;;;;;;3.15;2.38;;;31.30;51.10;;;;;;5014569;28;20034;-78
2023/08/14 10:47:41;;;;;;;4.75;2.78;;;31.20;50.60;;;;;;5013902;28;20026;-79
2023/08/14 10:50:17;;;;;;;6.25;2.10;;;31.20;51.00;;;;;;5021004;28;20034;-78
2023/08/14 10:52:53;;;;;;;8.07;2.40;;;31.40;51.30;;;;;;5015036;28;20038;-77
2023/08/14 10:55:36;;;;;;;3.25;2.45;;;31.50;51.30;;;;;;4999130;28;20031;-77
2023/08/14 10:58:35;;;;;;;5.43;2.28;;;31.70;50.00;;;;;;5001181;28;20036;-79
2023/08/14 11:01:11;;;;;;;6.22;2.83;;;31.90;51.30;;;;;;5035540;28;20017;-78
2023/08/14 11:04:03;;;;;;;5.40;2.30;;;32.10;51.80;;;;;;5015545;28;20606;-78
2023/08/14 11:07:01;;;;;;;6.68;2.10;;;32.20;48.90;;;;;;5036135;28;20045;-81
2023/08/14 11:09:35;;;;;;;2.85;2.50;;;32.10;49.20;;;;;;5017471;28;20034;-79
2023/08/14 11:12:07;;;;;;;18.65;3.08;;;32.10;49.80;;;;;;5017524;28;20555;-80
2023/08/14 11:14:35;;;;;;;5.60;2.63;;;32.00;51.30;;;;;;5036604;28;20029;-79
2023/08/14 11:17:02;;;;;;;4.00;2.97;;;32.20;51.20;;;;;;5035946;28;20030;-80
2023/08/14 11:19:29;;;;;;;4.30;2.53;;;32.20;50.40;;;;;;5017651;28;20026;-80
2023/08/14 11:21:54;;;;;;;14.82;2.83;;;32.30;50.70;;;;;;5014990;28;20112;-80
2023/08/14 11:24:20;;;;;;;5.18;2.55;;;32.40;51.30;;;;;;5025580;28;20048;-80
2023/08/14 11:26:46;;;;;;;8.27;2.58;;;32.60;49.90;;;;;;5019078;28;20553;-79
2023/08/14 11:29:12;;;;;;;6.05;2.72;;;32.70;50.70;;;;;;5003134;28;20368;-79
2023/08/14 11:31:42;;;;;;;10.32;2.83;;;32.90;50.60;;;;;;5036672;28;20071;-79
2023/08/14 11:34:07;;;;;;;4.68;2.83;;;33.00;51.10;;;;;;5018002;28;20038;-79
2023/08/14 11:36:33;;;;;;;3.13;2.25;;;33.00;49.40;;;;;;5001698;28;20037;-79
2023/08/14 11:38:59;;;;;;;3.70;2.10;;;33.20;51.00;;;;;;5017198;28;20025;-80
2023/08/14 11:41:25;;;;;;;7.28;2.50;;;33.40;49.60;;;;;;5000785;28;20032;-80
2023/08/14 11:43:51;;;;;;;5.03;2.20;;;33.50;47.90;;;;;;5015797;28;20124;-79
2023/08/14 11:46:18;;;;;;;5.80;2.28;;;33.60;47.70;;;;;;5034767;28;20029;-80
2023/08/14 11:48:44;;;;;;;7.25;2.33;;;33.70;47.00;;;;;;5016804;28;20041;-80
2023/08/14 11:51:10;;;;;;;3.90;2.83;;;33.80;47.90;;;;;;5034771;28;20029;-79
2023/08/14 11:53:36;;;;;;;4.15;2.30;;;33.90;47.50;;;;;;5034831;28;20533;-79
2023/08/14 11:56:02;;;;;;;4.20;2.80;;;33.90;47.70;;;;;;5034945;28;20041;-79
2023/08/14 11:58:28;;;;;;;6.03;2.45;;;34.00;48.00;;;;;;5016952;28;20415;-80
2023/08/14 12:00:54;;;;;;;3.53;2.40;;;34.10;47.20;;;;;;5035980;28;20029;-80
2023/08/14 12:03:20;;;;;;;4.10;2.53;;;34.20;47.30;;;;;;5035971;28;20093;-80
2023/08/14 12:05:47;;;;;;;4.07;2.30;;;34.40;47.50;;;;;;5001138;28;20061;-80
2023/08/14 12:08:13;;;;;;;3.70;1.95;;;34.50;47.10;;;;;;5039194;28;20044;-81
2023/08/14 12:10:40;;;;;;;6.28;2.42;;;34.60;46.40;;;;;;5020962;28;20030;-81
2023/08/14 12:13:06;;;;;;;4.75;2.22;;;34.70;46.00;;;;;;5021170;28;20228;-81
2023/08/14 12:15:32;;;;;;;6.70;2.25;;;34.70;46.70;;;;;;5038401;28;20057;-81
2023/08/14 12:17:58;;;;;;;5.22;2.22;;;34.80;46.70;;;;;;5021179;28;20025;-81
2023/08/14 12:20:23;;;;;;;;;;;34.90;45.40;;;;;;5021362;28;20026;-81
2023/08/14 12:22:49;;;;;;;5.78;2.13;;;34.90;46.70;;;;;;5037717;28;20404;-81
2023/08/14 12:25:19;;;;;;;9.10;2.47;;;35.00;46.70;;;;;;5038571;28;20025;-81
2023/08/14 12:27:45;;;;;;;6.55;2.15;;;35.10;46.10;;;;;;5038071;28;20034;-81
2023/08/14 12:30:12;;;;;;;5.25;2.80;;;35.10;45.20;;;;;;5042768;28;20093;-79
2023/08/14 12:32:47;;;;;;;4.90;2.30;;;35.00;46.20;;;;;;5004535;28;20041;-81
2023/08/14 12:35:13;;;;;;;7.88;2.50;;;34.90;46.00;;;;;;5037959;28;20372;-81
2023/08/14 12:37:39;;;;;;;7.15;2.50;;;35.00;46.30;;;;;;5037692;28;20472;-81
2023/08/14 12:40:09;;;;;;;4.78;2.65;;;35.10;45.70;;;;;;5004150;28;20029;-82
2023/08/14 12:42:36;;;;;;;5.90;2.65;;;35.20;46.10;;;;;;5020782;28;20037;-80